Aviation Digital Data Service (ADDS)

Output produced by METARs form (0037 UTC 24 May 2022)
found at http://www.aviationweather.gov/metar/data/
 
TAF TLPC 232300Z 2400/2424 09010KT 9999 SCT025
       
TAF TLPL 232300Z 2400/2424 08017KT 9999 SCT025